Time;durP1;ratioP1;P1;durP2;ratioP2;P2;SDS_P1;SDS_P2;PMS_P1;PMS_P2;Temp;Humidity;BMP_temperature;BMP_pressure;BME280_temperature;BME280_humidity;BME280_pressure;Samples;Min_cycle;Max_cycle;Signal;HPM_P1;HPM_P2
2023/02/08 00:04:40;;;;;;;23.53;12.77;;;;;-2.80;103227.00;;;;10006730;29;20221;-73
2023/02/08 00:09:41;;;;;;;23.73;13.07;;;;;-2.90;103199.00;;;;10021180;29;20194;-73
2023/02/08 00:14:43;;;;;;;26.27;13.13;;;;;-3.00;103206.00;;;;10002536;29;20602;-73
2023/02/08 00:19:45;;;;;;;25.80;12.47;;;;;-3.00;103215.00;;;;10037732;29;20258;-73
2023/02/08 00:24:48;;;;;;;20.33;12.33;;;;;-3.10;103219.00;;;;10030005;29;20277;-73
2023/02/08 00:29:50;;;;;;;24.23;13.10;;;;;-3.10;103200.00;;;;9991739;29;20285;-73
2023/02/08 00:34:52;;;;;;;28.13;12.83;;;;;-3.20;103217.00;;;;10048269;29;20556;-73
2023/02/08 00:39:54;;;;;;;34.00;14.27;;;;;-3.20;103213.00;;;;10041456;29;20227;-73
2023/02/08 00:45:00;;;;;;;30.87;14.37;;;;;-3.20;103205.00;;;;10055970;29;20205;-73
2023/02/08 00:50:04;;;;;;;28.50;12.40;;;;;-3.20;103198.00;;;;10054525;29;20193;-73
2023/02/08 00:55:08;;;;;;;24.27;13.33;;;;;-3.30;103193.00;;;;10023847;29;20197;-73
2023/02/08 01:00:11;;;;;;;29.27;13.50;;;;;-3.40;103210.00;;;;10039569;29;20291;-73
2023/02/08 01:05:13;;;;;;;24.27;13.73;;;;;-3.40;103220.00;;;;10055439;29;20217;-73
2023/02/08 01:10:14;;;;;;;29.83;12.90;;;;;-3.40;103228.00;;;;10011283;29;20269;-73
2023/02/08 01:15:16;;;;;;;23.40;13.60;;;;;-3.50;103226.00;;;;10040248;29;20763;-73
2023/02/08 01:20:18;;;;;;;25.57;14.03;;;;;-3.50;103224.00;;;;10055473;29;20245;-73
2023/02/08 01:25:20;;;;;;;28.67;13.47;;;;;-3.50;103215.00;;;;10053546;29;20205;-73
2023/02/08 01:30:22;;;;;;;25.90;13.37;;;;;-3.60;103220.00;;;;10056915;29;20243;-73
2023/02/08 01:35:24;;;;;;;29.77;14.90;;;;;-3.60;103222.00;;;;10055775;29;20280;-73
2023/02/08 01:40:26;;;;;;;26.63;13.00;;;;;-3.60;103234.00;;;;10047093;29;20194;-73
2023/02/08 01:45:30;;;;;;;32.00;15.17;;;;;-3.70;103240.00;;;;10068794;29;20216;-73
2023/02/08 01:50:44;;;;;;;28.77;13.57;;;;;-3.70;103238.00;;;;10091436;29;20224;-73
2023/02/08 01:55:51;;;;;;;28.13;12.67;;;;;-3.80;103235.00;;;;10088769;29;20213;-73
2023/02/08 02:00:53;;;;;;;29.27;14.20;;;;;-3.80;103227.00;;;;10055488;29;20218;-73
2023/02/08 02:06:20;;;;;;;28.30;13.07;;;;;-3.80;103228.00;;;;10090851;29;20205;-73
2023/02/08 02:11:22;;;;;;;20.70;13.20;;;;;-3.80;103227.00;;;;10059882;29;20210;-73
2023/02/08 02:16:27;;;;;;;21.70;11.93;;;;;-3.90;103219.00;;;;10075715;29;20217;-73
2023/02/08 02:22:05;;;;;;;22.23;10.97;;;;;-3.90;103221.00;;;;10075118;29;20188;-73
2023/02/08 02:27:28;;;;;;;23.63;12.87;;;;;-3.90;103213.00;;;;10075798;29;20781;-73
2023/02/08 02:32:43;;;;;;;22.30;13.03;;;;;-3.90;103214.00;;;;10051959;29;20197;-73
2023/02/08 02:38:04;;;;;;;25.70;12.70;;;;;-3.90;103197.00;;;;10056261;29;20208;-73
2023/02/08 02:48:45;;;;;;;25.97;12.30;;;;;-3.90;103186.00;;;;10074665;29;20196;-73
2023/02/08 02:53:51;;;;;;;23.70;12.67;;;;;-3.90;103181.00;;;;10073879;29;20212;-73
2023/02/08 02:58:57;;;;;;;24.40;12.07;;;;;-4.00;103189.00;;;;10047074;29;20209;-73
2023/02/08 03:03:59;;;;;;;22.03;12.27;;;;;-3.70;103182.00;;;;10036819;29;20692;-73
2023/02/08 03:09:17;;;;;;;20.40;11.23;;;;;-3.60;103185.00;;;;10037790;29;20193;-73
2023/02/08 03:14:30;;;;;;;21.77;11.60;;;;;-3.70;103181.00;;;;10044341;29;20192;-73
2023/02/08 03:19:46;;;;;;;20.70;11.37;;;;;-3.90;103175.00;;;;10043591;29;20211;-73
2023/02/08 03:25:05;;;;;;;29.27;12.20;;;;;-4.00;103166.00;;;;10028216;29;20268;-73
2023/02/08 03:30:14;;;;;;;23.67;12.20;;;;;-4.20;103176.00;;;;10057883;29;20649;-73
2023/02/08 03:35:25;;;;;;;22.03;11.80;;;;;-4.20;103184.00;;;;10009431;29;20238;-73
2023/02/08 03:40:28;;;;;;;21.90;11.37;;;;;-4.20;103190.00;;;;9974280;29;20197;-73
2023/02/08 03:45:37;;;;;;;19.10;11.00;;;;;-4.20;103199.00;;;;10042795;29;20227;-73
2023/02/08 03:50:44;;;;;;;21.03;12.00;;;;;-4.10;103189.00;;;;10081565;29;20189;-73
2023/02/08 03:55:53;;;;;;;17.40;9.77;;;;;-4.00;103202.00;;;;10076657;29;20209;-73
2023/02/08 04:01:01;;;;;;;23.70;10.43;;;;;-4.00;103188.00;;;;10042217;29;20236;-73
2023/02/08 04:06:02;;;;;;;18.67;10.20;;;;;-4.10;103183.00;;;;10026775;29;20304;-73
2023/02/08 04:11:04;;;;;;;21.90;10.83;;;;;-4.10;103178.00;;;;10041094;29;20201;-73
2023/02/08 04:16:10;;;;;;;18.40;10.27;;;;;-4.20;103186.00;;;;10040991;29;20808;-73
2023/02/08 04:21:12;;;;;;;25.73;10.00;;;;;-4.20;103190.00;;;;10026785;29;20185;-73
2023/02/08 04:26:14;;;;;;;17.10;10.00;;;;;-4.30;103179.00;;;;10041757;29;20319;-74
2023/02/08 04:31:16;;;;;;;20.93;9.20;;;;;-4.30;103183.00;;;;10041264;29;20197;-74
2023/02/08 04:36:20;;;;;;;20.90;10.03;;;;;-4.30;103178.00;;;;10055512;29;20205;-74
2023/02/08 04:41:22;;;;;;;21.07;9.47;;;;;-4.40;103171.00;;;;10009764;29;20254;-73
2023/02/08 04:46:24;;;;;;;17.03;8.87;;;;;-4.40;103167.00;;;;10007773;29;20268;-73
2023/02/08 04:51:26;;;;;;;16.30;10.70;;;;;-4.40;103173.00;;;;10093737;29;20203;-74
2023/02/08 04:56:28;;;;;;;22.20;11.00;;;;;-4.40;103177.00;;;;10040526;29;20201;-74
2023/02/08 05:01:30;;;;;;;22.80;11.37;;;;;-4.40;103165.00;;;;10039995;29;20197;-74
2023/02/08 05:06:32;;;;;;;14.87;8.80;;;;;-4.40;103165.00;;;;10040166;29;20295;-74
2023/02/08 05:11:35;;;;;;;19.27;8.90;;;;;-4.50;103141.00;;;;10039538;29;20193;-74
2023/02/08 05:16:37;;;;;;;18.37;9.37;;;;;-4.50;103151.00;;;;10016035;29;20197;-74
2023/02/08 05:21:39;;;;;;;17.03;9.50;;;;;-4.60;103155.00;;;;10031822;29;20219;-74
2023/02/08 05:26:41;;;;;;;21.07;9.97;;;;;-4.60;103166.00;;;;10026784;29;20221;-74
2023/02/08 05:31:43;;;;;;;20.70;8.53;;;;;-4.60;103170.00;;;;10023136;29;20596;-74
2023/02/08 05:36:45;;;;;;;16.47;9.57;;;;;-4.60;103175.00;;;;10023046;29;20225;-74
2023/02/08 05:41:46;;;;;;;21.57;10.37;;;;;-4.60;103175.00;;;;10053610;29;20205;-74
2023/02/08 05:46:48;;;;;;;19.23;9.17;;;;;-4.60;103168.00;;;;10053316;29;20223;-75
2023/02/08 05:51:50;;;;;;;17.43;10.80;;;;;-4.60;103173.00;;;;10038492;29;20644;-74
2023/02/08 05:56:52;;;;;;;25.77;11.10;;;;;-4.70;103168.00;;;;10053868;29;20199;-74
2023/02/08 06:01:54;;;;;;;18.57;10.23;;;;;-4.70;103166.00;;;;10053238;29;20736;-74
2023/02/08 06:06:56;;;;;;;18.40;9.17;;;;;-4.70;103178.00;;;;10022326;29;20209;-74
2023/02/08 06:11:58;;;;;;;15.33;9.13;;;;;-4.70;103177.00;;;;10037498;29;20260;-74
2023/02/08 06:17:00;;;;;;;21.37;10.07;;;;;-4.70;103171.00;;;;10021996;29;20192;-74
2023/02/08 06:22:02;;;;;;;16.87;9.60;;;;;-4.80;103171.00;;;;10022107;29;20248;-74
2023/02/08 06:27:03;;;;;;;21.30;10.00;;;;;-4.80;103163.00;;;;10048560;29;20266;-74
2023/02/08 06:32:05;;;;;;;18.57;9.77;;;;;-4.80;103167.00;;;;10035584;29;20223;-74
2023/02/08 06:37:07;;;;;;;20.90;10.20;;;;;-4.80;103160.00;;;;10051841;29;20185;-74
2023/02/08 06:42:10;;;;;;;19.87;10.27;;;;;-4.80;103163.00;;;;10051647;29;20245;-74
2023/02/08 06:47:12;;;;;;;18.47;9.70;;;;;-4.80;103168.00;;;;10089080;29;20233;-74
2023/02/08 06:52:14;;;;;;;19.13;10.63;;;;;-4.70;103167.00;;;;10074662;29;20211;-74
2023/02/08 06:57:17;;;;;;;103.77;43.60;;;;;-4.70;103175.00;;;;10058846;29;20208;-74
2023/02/08 07:02:20;;;;;;;30.07;15.63;;;;;-4.60;103175.00;;;;10036566;29;20189;-74
2023/02/08 07:07:22;;;;;;;21.07;11.47;;;;;-4.60;103180.00;;;;10052233;29;20213;-73
2023/02/08 07:12:24;;;;;;;66.63;27.03;;;;;-4.50;103176.00;;;;10084514;29;20256;-73
2023/02/08 07:17:26;;;;;;;55.97;29.10;;;;;-4.40;103181.00;;;;10089696;29;20188;-73
2023/02/08 07:22:28;;;;;;;36.37;19.33;;;;;-4.30;103159.00;;;;10074698;29;20204;-73
2023/02/08 07:27:30;;;;;;;24.20;13.27;;;;;-4.20;103163.00;;;;10026063;29;20229;-73
2023/02/08 07:32:32;;;;;;;28.50;11.90;;;;;-4.00;103162.00;;;;10057926;29;20214;-73
2023/02/08 07:37:35;;;;;;;25.63;13.77;;;;;-3.90;103163.00;;;;10058244;29;20192;-73
2023/02/08 07:42:37;;;;;;;21.07;12.57;;;;;-3.70;103158.00;;;;10033965;29;20199;-73
2023/02/08 07:47:51;;;;;;;26.10;13.03;;;;;-3.60;103160.00;;;;10035131;29;20701;-73
2023/02/08 07:52:52;;;;;;;30.30;13.63;;;;;-3.50;103160.00;;;;10019864;29;20196;-73
2023/02/08 07:57:55;;;;;;;25.00;13.53;;;;;-3.40;103159.00;;;;10055106;29;20208;-73
2023/02/08 08:02:57;;;;;;;23.07;12.23;;;;;-3.20;103163.00;;;;10041465;29;20285;-73
2023/02/08 08:07:59;;;;;;;26.80;14.23;;;;;-3.10;103168.00;;;;10025659;29;20231;-73
2023/02/08 08:13:02;;;;;;;24.53;12.33;;;;;-2.90;103163.00;;;;10073483;29;20257;-73
2023/02/08 08:18:04;;;;;;;25.20;11.93;;;;;-2.70;103154.00;;;;10094457;29;20541;-73
2023/02/08 08:23:06;;;;;;;26.03;13.40;;;;;-2.50;103159.00;;;;10053629;29;20234;-73
2023/02/08 08:28:08;;;;;;;33.13;14.07;;;;;-2.30;103155.00;;;;10055704;29;20235;-73
2023/02/08 08:33:14;;;;;;;29.73;15.27;;;;;-2.00;103158.00;;;;10043437;29;20599;-73
2023/02/08 08:38:16;;;;;;;22.07;12.23;;;;;-1.70;103131.00;;;;10034598;29;20189;-73
2023/02/08 08:43:18;;;;;;;42.73;21.20;;;;;-1.20;103145.00;;;;10028400;29;20311;-73
2023/02/08 08:48:20;;;;;;;35.13;18.03;;;;;-0.70;103154.00;;;;10041488;29;20273;-73
2023/02/08 08:53:22;;;;;;;29.53;15.77;;;;;-0.20;103138.00;;;;10052822;29;20227;-73
2023/02/08 08:58:23;;;;;;;21.03;13.00;;;;;0.70;103133.00;;;;10041995;29;20672;-73
2023/02/08 09:03:26;;;;;;;30.70;15.90;;;;;1.50;103135.00;;;;10034236;29;20217;-73
2023/02/08 09:08:28;;;;;;;25.77;15.07;;;;;2.20;103152.00;;;;10037142;29;20225;-73
2023/02/08 09:13:31;;;;;;;22.43;15.13;;;;;2.90;103153.00;;;;10018932;29;20651;-73
2023/02/08 09:18:32;;;;;;;15.40;9.23;;;;;3.40;103151.00;;;;10027263;29;20442;-74
2023/02/08 09:23:34;;;;;;;10.80;7.40;;;;;3.80;103160.00;;;;10007670;29;20205;-74
2023/02/08 09:28:37;;;;;;;17.67;8.70;;;;;4.20;103140.00;;;;10016055;29;20232;-74
2023/02/08 09:33:39;;;;;;;11.90;8.03;;;;;4.50;103133.00;;;;10041894;29;20201;-74
2023/02/08 09:38:42;;;;;;;11.03;7.70;;;;;4.80;103124.00;;;;10014820;29;20200;-74
2023/02/08 09:43:57;;;;;;;12.17;7.00;;;;;5.10;103130.00;;;;10002032;29;20229;-74
2023/02/08 09:49:03;;;;;;;11.17;7.07;;;;;5.30;103133.00;;;;10054171;29;20210;-74
2023/02/08 09:54:13;;;;;;;12.63;7.17;;;;;5.50;103142.00;;;;10018176;29;20200;-74
2023/02/08 09:59:21;;;;;;;9.80;6.53;;;;;5.60;103138.00;;;;10036325;29;20197;-74
2023/02/08 10:04:34;;;;;;;10.30;5.90;;;;;5.80;103140.00;;;;10021116;29;20210;-74
2023/02/08 10:09:36;;;;;;;11.83;6.23;;;;;6.10;103136.00;;;;10057707;29;20784;-73
2023/02/08 10:15:14;;;;;;;9.23;6.70;;;;;6.20;103135.00;;;;10008594;29;20295;-73
2023/02/08 10:20:31;;;;;;;8.20;6.07;;;;;6.40;103135.00;;;;10029464;29;20193;-74
2023/02/08 10:25:45;;;;;;;9.63;6.03;;;;;6.70;103138.00;;;;10011100;29;20232;-74
2023/02/08 10:31:17;;;;;;;9.73;6.77;;;;;6.80;103139.00;;;;10020392;29;20262;-74
2023/02/08 10:36:24;;;;;;;10.80;7.03;;;;;6.90;103136.00;;;;10022487;29;20198;-74
2023/02/08 10:41:35;;;;;;;10.83;6.90;;;;;7.10;103127.00;;;;10023581;29;20197;-74
2023/02/08 10:46:57;;;;;;;11.83;6.70;;;;;7.30;103132.00;;;;10031081;29;20210;-74
2023/02/08 10:51:59;;;;;;;10.43;6.50;;;;;7.50;103136.00;;;;10034441;29;20223;-74
2023/02/08 10:57:15;;;;;;;9.53;6.80;;;;;7.70;103129.00;;;;10020897;29;20209;-74
2023/02/08 11:02:40;;;;;;;8.40;5.67;;;;;8.00;103132.00;;;;10029967;29;20193;-74
2023/02/08 11:07:42;;;;;;;8.13;5.90;;;;;8.10;103122.00;;;;10038860;29;20296;-74
2023/02/08 11:13:14;;;;;;;7.33;5.20;;;;;8.20;103129.00;;;;10024402;29;20205;-74
2023/02/08 11:18:32;;;;;;;7.93;5.57;;;;;8.60;103119.00;;;;10032075;29;20253;-74
2023/02/08 11:23:41;;;;;;;10.47;8.43;;;;;8.60;103116.00;;;;10026393;29;20212;-74
2023/02/08 11:28:44;;;;;;;14.97;11.13;;;;;8.80;103108.00;;;;9976430;29;20243;-74
2023/02/08 11:34:22;;;;;;;11.47;7.43;;;;;9.20;103112.00;;;;9924785;29;20236;-74
2023/02/08 11:39:29;;;;;;;6.97;5.07;;;;;9.20;103102.00;;;;9929352;29;20249;-74
2023/02/08 11:44:36;;;;;;;6.17;4.53;;;;;9.20;103083.00;;;;9952063;29;20260;-74
2023/02/08 11:49:43;;;;;;;8.10;4.77;;;;;9.40;103078.00;;;;9942689;29;20216;-74
2023/02/08 11:54:45;;;;;;;5.60;4.07;;;;;9.60;103071.00;;;;9949370;29;20589;-74
2023/02/08 11:59:49;;;;;;;7.43;4.97;;;;;9.80;103071.00;;;;9899937;29;20201;-74
2023/02/08 12:04:51;;;;;;;7.03;4.23;;;;;9.90;103067.00;;;;9930070;29;20276;-74
2023/02/08 12:09:53;;;;;;;7.80;5.07;;;;;9.90;103061.00;;;;9924169;29;20205;-74
2023/02/08 12:15:04;;;;;;;9.67;4.20;;;;;10.00;103039.00;;;;9940643;29;20206;-74
2023/02/08 12:20:31;;;;;;;5.97;4.00;;;;;10.00;103045.00;;;;9905189;29;22343;-74
2023/02/08 12:25:43;;;;;;;5.80;4.17;;;;;10.20;103043.00;;;;9917818;29;20297;-74
2023/02/08 12:31:01;;;;;;;6.30;4.77;;;;;10.30;103024.00;;;;9913352;29;20328;-74
2023/02/08 12:36:21;;;;;;;5.60;3.90;;;;;10.50;103028.00;;;;9947535;29;20253;-74
2023/02/08 12:41:38;;;;;;;8.77;3.40;;;;;10.50;103023.00;;;;9933725;29;21178;-74
2023/02/08 12:46:47;;;;;;;6.00;2.80;;;;;10.60;103005.00;;;;9922659;29;20251;-74
2023/02/08 12:51:52;;;;;;;3.27;2.63;;;;;10.60;102993.00;;;;9904995;29;20205;-73
2023/02/08 12:56:56;;;;;;;6.10;3.13;;;;;10.80;102988.00;;;;9919422;29;21894;-74
2023/02/08 13:02:24;;;;;;;7.97;3.07;;;;;10.80;102978.00;;;;9909618;29;20212;-74
2023/02/08 13:07:34;;;;;;;4.93;3.60;;;;;10.90;102972.00;;;;9918197;29;20214;-74
2023/02/08 13:12:52;;;;;;;3.40;3.10;;;;;10.90;102971.00;;;;9933429;29;20220;-74
2023/02/08 13:17:56;;;;;;;3.80;2.73;;;;;11.00;102952.00;;;;9929288;29;20225;-74
2023/02/08 13:23:11;;;;;;;4.90;2.87;;;;;11.00;102945.00;;;;9914247;29;20209;-74
2023/02/08 13:28:19;;;;;;;5.27;2.97;;;;;11.10;102926.00;;;;9929467;29;20228;-74
2023/02/08 13:33:50;;;;;;;7.37;2.77;;;;;11.10;102926.00;;;;9934404;29;20276;-75
2023/02/08 13:39:06;;;;;;;3.87;2.57;;;;;11.00;102913.00;;;;9922423;29;20220;-75
2023/02/08 13:44:19;;;;;;;5.57;2.83;;;;;10.80;102915.00;;;;9925301;29;20209;-75
2023/02/08 13:50:13;;;;;;;6.50;3.30;;;;;10.40;102904.00;;;;9938230;29;20213;-74
2023/02/08 13:55:29;;;;;;;5.93;2.80;;;;;10.40;102899.00;;;;9900342;29;20297;-74
2023/02/08 14:00:35;;;;;;;3.93;3.00;;;;;10.30;102875.00;;;;9917906;29;20208;-74
2023/02/08 14:06:05;;;;;;;4.23;3.00;;;;;10.20;102884.00;;;;9934747;29;20213;-74
2023/02/08 14:11:16;;;;;;;5.07;3.27;;;;;10.00;102879.00;;;;9935269;29;20983;-74
2023/02/08 14:16:26;;;;;;;5.70;3.03;;;;;10.30;102876.00;;;;9916461;29;20236;-75
2023/02/08 14:22:01;;;;;;;4.20;3.00;;;;;10.70;102886.00;;;;9934744;29;20313;-74
2023/02/08 14:27:20;;;;;;;3.00;2.33;;;;;11.90;102863.00;;;;9894908;29;20339;-73
2023/02/08 14:32:25;;;;;;;5.40;2.60;;;;;13.60;102833.00;;;;9963442;29;20208;-72
2023/02/08 14:37:30;;;;;;;3.37;2.70;;;;;14.20;102836.00;;;;9989165;29;20846;-72
2023/02/08 14:43:09;;;;;;;4.67;3.20;;;;;13.60;102814.00;;;;10002701;29;20554;-77
2023/02/08 14:48:22;;;;;;;4.83;2.80;;;;;11.80;102848.00;;;;10008986;29;20323;-77
2023/02/08 14:53:33;;;;;;;5.13;2.83;;;;;12.30;102809.00;;;;10022689;29;20212;-77
2023/02/08 14:58:45;;;;;;;4.37;3.23;;;;;12.30;102832.00;;;;10033607;29;20201;-77
2023/02/08 15:03:49;;;;;;;3.03;2.70;;;;;13.40;102796.00;;;;10006166;29;20361;-77
2023/02/08 15:08:53;;;;;;;4.10;2.97;;;;;13.00;102800.00;;;;10008894;29;20254;-77
2023/02/08 15:13:58;;;;;;;3.53;2.60;;;;;10.30;102864.00;;;;10024370;29;20225;-77
2023/02/08 15:19:04;;;;;;;4.53;2.73;;;;;8.70;102857.00;;;;10008826;29;20197;-77
2023/02/08 15:24:27;;;;;;;5.07;2.40;;;;;11.00;102795.00;;;;9996617;29;20265;-77
2023/02/08 15:29:29;;;;;;;5.17;2.70;;;;;11.60;102815.00;;;;10020165;29;20700;-77
2023/02/08 15:34:52;;;;;;;6.50;2.70;;;;;11.60;102806.00;;;;10017948;29;20313;-77
2023/02/08 15:39:55;;;;;;;4.50;2.80;;;;;11.80;102781.00;;;;10032710;29;20208;-77
2023/02/08 15:44:59;;;;;;;3.77;2.53;;;;;9.30;102830.00;;;;10005929;29;20556;-77
2023/02/08 15:50:05;;;;;;;3.37;2.30;;;;;9.10;102803.00;;;;10056411;29;20254;-77
2023/02/08 15:55:11;;;;;;;6.37;2.80;;;;;7.60;102813.00;;;;10001996;29;20643;-77
2023/02/08 16:00:17;;;;;;;3.50;2.83;;;;;6.90;102807.00;;;;9992725;29;20202;-77
2023/02/08 16:05:28;;;;;;;5.77;3.23;;;;;6.40;102784.00;;;;10029439;29;20696;-77
2023/02/08 16:10:32;;;;;;;5.87;2.83;;;;;6.10;102785.00;;;;10038920;29;20201;-77
2023/02/08 16:15:44;;;;;;;5.30;3.07;;;;;5.80;102786.00;;;;10001842;29;20262;-77
2023/02/08 16:20:56;;;;;;;7.23;3.50;;;;;5.60;102770.00;;;;10012747;29;20209;-77
2023/02/08 16:26:18;;;;;;;6.83;4.30;;;;;5.40;102759.00;;;;10003213;29;20229;-77
2023/02/08 16:31:27;;;;;;;7.80;3.70;;;;;5.10;102761.00;;;;9985253;29;20309;-77
2023/02/08 16:36:39;;;;;;;12.20;5.67;;;;;4.90;102759.00;;;;10010826;29;20193;-77
2023/02/08 16:41:53;;;;;;;6.87;3.77;;;;;4.70;102745.00;;;;10035171;29;20736;-77
2023/02/08 16:47:42;;;;;;;5.73;3.20;;;;;4.30;102756.00;;;;10032855;29;20212;-77
2023/02/08 16:52:48;;;;;;;4.27;2.60;;;;;4.00;102750.00;;;;10047402;29;20213;-77
2023/02/08 16:57:52;;;;;;;6.93;3.17;;;;;3.60;102746.00;;;;10010899;29;20218;-77
2023/02/08 17:02:55;;;;;;;4.93;2.97;;;;;3.40;102751.00;;;;9991357;29;20193;-76
2023/02/08 17:07:58;;;;;;;6.00;2.83;;;;;3.40;102752.00;;;;10006839;29;20268;-77
2023/02/08 17:13:01;;;;;;;8.73;3.70;;;;;3.20;102748.00;;;;10037296;29;20217;-77
2023/02/08 17:18:20;;;;;;;3.90;2.60;;;;;3.00;102755.00;;;;10027851;29;20241;-78
2023/02/08 17:23:22;;;;;;;7.07;2.83;;;;;2.80;102749.00;;;;10007950;29;20197;-78
2023/02/08 17:28:25;;;;;;;6.03;3.50;;;;;2.50;102740.00;;;;10005439;29;20245;-77
2023/02/08 17:33:28;;;;;;;8.27;3.23;;;;;2.30;102743.00;;;;10019178;29;20617;-77
2023/02/08 17:38:30;;;;;;;13.47;4.77;;;;;2.00;102732.00;;;;10021539;29;20205;-77
2023/02/08 17:43:32;;;;;;;10.30;5.83;;;;;1.90;102717.00;;;;10031733;29;20688;-77
2023/02/08 17:48:34;;;;;;;10.60;6.17;;;;;1.70;102723.00;;;;10047848;29;20220;-77
2023/02/08 17:53:41;;;;;;;14.20;6.17;;;;;1.60;102716.00;;;;10022710;29;20560;-77
2023/02/08 17:58:43;;;;;;;9.27;5.33;;;;;1.60;102710.00;;;;10025537;29;20197;-77
2023/02/08 18:03:47;;;;;;;9.60;5.20;;;;;1.50;102705.00;;;;10003183;29;20260;-77
2023/02/08 18:08:53;;;;;;;12.20;5.50;;;;;1.50;102689.00;;;;10029905;29;20217;-76
2023/02/08 18:13:55;;;;;;;12.63;5.53;;;;;1.50;102693.00;;;;10001678;29;20307;-76
2023/02/08 18:18:58;;;;;;;8.83;4.43;;;;;1.50;102697.00;;;;10030496;29;20193;-77
2023/02/08 18:24:03;;;;;;;10.57;5.33;;;;;1.60;102693.00;;;;10020991;29;20262;-77
2023/02/08 18:29:05;;;;;;;8.47;5.30;;;;;1.60;102684.00;;;;10020099;29;20224;-77
2023/02/08 18:34:08;;;;;;;11.17;5.40;;;;;1.50;102686.00;;;;10035260;29;20831;-77
2023/02/08 18:39:13;;;;;;;9.53;5.47;;;;;1.60;102681.00;;;;10020426;29;20601;-77
2023/02/08 18:44:15;;;;;;;12.50;5.47;;;;;1.50;102687.00;;;;10031674;29;20197;-77
2023/02/08 18:49:17;;;;;;;8.17;5.70;;;;;1.40;102678.00;;;;10008090;29;20197;-77
2023/02/08 18:54:20;;;;;;;10.47;5.80;;;;;1.40;102677.00;;;;10007071;29;20297;-77
2023/02/08 18:59:22;;;;;;;7.37;5.83;;;;;1.40;102676.00;;;;10008362;29;20188;-77
2023/02/08 19:04:24;;;;;;;11.03;6.50;;;;;1.40;102670.00;;;;10027609;29;20204;-77
2023/02/08 19:09:26;;;;;;;9.20;5.10;;;;;1.40;102682.00;;;;10015607;29;20221;-77
2023/02/08 19:14:28;;;;;;;9.47;6.10;;;;;1.40;102689.00;;;;9985288;29;20205;-77
2023/02/08 19:19:29;;;;;;;9.63;5.97;;;;;1.40;102686.00;;;;10022401;29;20197;-77
2023/02/08 19:24:31;;;;;;;12.67;5.97;;;;;1.10;102694.00;;;;10031302;29;20197;-77
2023/02/08 19:29:33;;;;;;;14.80;8.37;;;;;0.80;102690.00;;;;9992973;29;20312;-77
2023/02/08 19:34:35;;;;;;;13.93;8.10;;;;;0.50;102698.00;;;;10026609;29;20607;-77
2023/02/08 19:39:38;;;;;;;12.37;7.80;;;;;0.30;102697.00;;;;10019629;29;20275;-77
2023/02/08 19:44:40;;;;;;;15.70;8.20;;;;;0.10;102692.00;;;;9974181;29;20235;-77
2023/02/08 19:49:42;;;;;;;15.80;7.70;;;;;-0.10;102685.00;;;;9986154;29;20269;-77
2023/02/08 19:54:44;;;;;;;13.50;7.43;;;;;-0.30;102695.00;;;;10010613;29;20193;-77
2023/02/08 19:59:46;;;;;;;14.80;8.57;;;;;-0.40;102687.00;;;;9998709;29;20653;-77
2023/02/08 20:04:48;;;;;;;13.87;8.47;;;;;-0.50;102685.00;;;;9997438;29;20205;-78
2023/02/08 20:09:50;;;;;;;14.20;8.50;;;;;-0.70;102695.00;;;;10034686;29;20214;-77
2023/02/08 20:14:52;;;;;;;17.20;9.27;;;;;-0.80;102689.00;;;;10016348;29;20209;-77
2023/02/08 20:19:54;;;;;;;18.53;9.97;;;;;-0.90;102683.00;;;;10011269;29;20193;-77
2023/02/08 20:24:56;;;;;;;19.07;9.33;;;;;-1.00;102677.00;;;;10018201;29;20197;-77
2023/02/08 20:29:58;;;;;;;27.30;12.43;;;;;-1.10;102672.00;;;;10025907;29;20625;-79
2023/02/08 20:35:00;;;;;;;22.83;12.03;;;;;-1.10;102676.00;;;;10006855;29;20201;-77
2023/02/08 20:40:03;;;;;;;20.77;10.50;;;;;-1.10;102680.00;;;;10044127;29;20228;-79
2023/02/08 20:45:07;;;;;;;15.73;8.80;;;;;-1.10;102670.00;;;;10035383;29;20197;-77
2023/02/08 20:50:09;;;;;;;16.07;7.87;;;;;-1.00;102675.00;;;;10019427;29;20806;-77
2023/02/08 20:55:20;;;;;;;15.83;7.90;;;;;-1.00;102663.00;;;;10019987;29;20204;-77
2023/02/08 21:00:22;;;;;;;18.53;7.53;;;;;-1.00;102664.00;;;;10014196;29;20193;-77
2023/02/08 21:05:31;;;;;;;12.80;7.40;;;;;-0.90;102672.00;;;;9999253;29;20220;-79
2023/02/08 21:10:37;;;;;;;15.07;9.80;;;;;-1.00;102672.00;;;;10034235;29;20220;-79
2023/02/08 21:15:43;;;;;;;20.07;9.97;;;;;-1.10;102667.00;;;;10028566;29;20748;-79
2023/02/08 21:20:45;;;;;;;17.17;8.80;;;;;-1.20;102677.00;;;;10033850;29;20406;-79
2023/02/08 21:25:48;;;;;;;18.40;8.50;;;;;-1.50;102677.00;;;;10001251;29;20214;-78
2023/02/08 21:30:58;;;;;;;16.40;8.83;;;;;-1.60;102671.00;;;;10061557;29;20193;-79
2023/02/08 21:36:03;;;;;;;14.07;8.50;;;;;-1.80;102661.00;;;;10018037;29;20201;-79
2023/02/08 21:41:07;;;;;;;12.87;7.77;;;;;-1.70;102661.00;;;;10004343;29;20673;-79
2023/02/08 21:46:09;;;;;;;12.93;8.10;;;;;-1.50;102658.00;;;;10007038;29;20243;-79
2023/02/08 21:56:31;;;;;;;15.53;8.30;;;;;-1.10;102643.00;;;;10028757;29;20201;-79
2023/02/08 22:01:36;;;;;;;18.33;9.60;;;;;-1.20;102648.00;;;;10011725;29;20208;-79
2023/02/08 22:06:38;;;;;;;17.53;8.80;;;;;-1.30;102640.00;;;;10026227;29;20216;-78
2023/02/08 22:11:41;;;;;;;17.07;8.20;;;;;-1.20;102630.00;;;;10047177;29;20193;-78
2023/02/08 22:17:17;;;;;;;15.33;6.43;;;;;-1.00;102627.00;;;;10070547;29;20292;-78
2023/02/08 22:22:19;;;;;;;10.53;6.10;;;;;-0.80;102622.00;;;;10015019;29;20217;-77
2023/02/08 22:27:21;;;;;;;12.33;6.07;;;;;-0.70;102630.00;;;;10030354;29;20227;-79
2023/02/08 22:32:23;;;;;;;12.50;5.97;;;;;-0.70;102625.00;;;;10022320;29;20205;-78
2023/02/08 22:37:25;;;;;;;10.03;5.20;;;;;-0.70;102614.00;;;;10004425;29;20193;-78
2023/02/08 22:42:27;;;;;;;12.77;6.07;;;;;-0.60;102622.00;;;;10022744;29;20278;-78
2023/02/08 22:47:29;;;;;;;12.33;6.47;;;;;-0.70;102623.00;;;;10002302;29;20219;-77
2023/02/08 22:52:33;;;;;;;11.67;6.93;;;;;-0.90;102627.00;;;;10021353;29;20293;-77
2023/02/08 22:57:35;;;;;;;14.40;7.17;;;;;-1.00;102624.00;;;;10009590;29;20197;-78
2023/02/08 23:02:37;;;;;;;14.77;6.93;;;;;-1.20;102627.00;;;;10031381;29;20681;-78
2023/02/08 23:07:39;;;;;;;14.23;6.10;;;;;-1.30;102619.00;;;;10006427;29;20205;-78
2023/02/08 23:12:41;;;;;;;9.90;5.87;;;;;-1.50;102623.00;;;;10010704;29;20197;-78
2023/02/08 23:17:43;;;;;;;11.20;6.53;;;;;-1.70;102621.00;;;;10025872;29;20193;-79
2023/02/08 23:22:45;;;;;;;13.80;4.97;;;;;-1.50;102609.00;;;;10025960;29;20196;-78
2023/02/08 23:27:47;;;;;;;9.70;5.03;;;;;-1.10;102602.00;;;;10029797;29;20217;-79
2023/02/08 23:32:49;;;;;;;9.63;5.40;;;;;-0.80;102605.00;;;;10033482;29;20261;-78
2023/02/08 23:37:51;;;;;;;11.13;5.40;;;;;-0.70;102602.00;;;;10063905;29;20201;-79
2023/02/08 23:42:53;;;;;;;7.57;5.10;;;;;-0.50;102618.00;;;;10063470;29;20200;-79
2023/02/08 23:47:55;;;;;;;11.33;5.13;;;;;-0.60;102609.00;;;;10061778;29;20217;-78
2023/02/08 23:52:57;;;;;;;11.73;5.13;;;;;-0.80;102611.00;;;;10048140;29;20197;-78
2023/02/08 23:57:59;;;;;;;11.07;4.77;;;;;-0.80;102611.00;;;;10031709;29;20299;-79
